Portada
METAR-TAF:

METAR-TAF

Aeropuertos :

Aeropuerto Internacional Diori Hamani

Niamey, Níger

latitud: 13-29N, longitud: 002-10E, altitud: 223 m

Observación

El informe se hizo hace 37 minutos, a las 06:00 UTC
Viento 1 kt del norte-noroeste
Temperatura 22°C
Humedad 33%
Presión 1011 hPa
Visibilidad: 4500 m
Polvo extendido

METAR: DRRN 190600Z 33001KT 4500 DU NSC 22/05 Q1011 NOSIG

Hora: 07:37 (06:37 UTC)

Pronóstico

El informe se hizo hace 1 hora y 37 minutos, a las 05:00 UTC
Pronóstico válido del 19 a las 06 UTC al 20 a las 12 UTC
Viento 8 kt del este-sureste
Visibilidad: 4000 m
Polvo extendido
Evolucionando progresivamente
del 19 a las 14 UTC al 19 a las 16 UTC
Visibilidad: 6000 m
Temporalmente
del 19 a las 17 UTC al 19 a las 20 UTC
Visibilidad: 4000 m
Polvo extendido

TAF: DRRN 190500Z 1906/2012 12008KT 4000 DU NSC BECMG 1914/1916 6000 NSW TEMPO 1917/1920 4000 DU

Observaciones y pronósticos meteorológicos de más de 4000 aeropuertos (mensajes METAR y TAF).

Los puntos amarillos y rojos representan las estaciones disponibles.

Ponga el ratón en el punto deseado para ver el nombre de la estación.

Haga clic para ver las observaciones y los pronósticos meteorológicos.

Para cambiar el mapa : haga clic en los botones verdes con una cruz de color negro para hacer un zoom, en el botón verde con un guión para alejar o en las flechas verdes para mapas adyacentes.


METAR-TAF: